Aeroporto :
LOGIN :

Iscrizione | Disclaimer

   EN    FR    IT 

 










Sommario :    VFR   VFR Marginale   IFR   IFR Intensivo   IFR Molto Intensivo
Visibilità : 
Base nubi : 
>= 8 km
>= 3000ft
5 / 8 km
1000 / 3000 ft
1500m / 5 km
500 / 1000 ft
800 / 1500m
200 / 500 ft
< 800m
< 200 ft
Simboli :   Temporali  Nebbia  Neve Forte  Precipitazioni Forti  Vento > 20 kt
SIGMETs :   Varie  Temporali  Ghiacco  Turbolenza  Onda orograficha  Ceneri Vulcaniche






- Altitudine del aeroporto : 218 ft
- Codice IATA : LBG


LFPB - Paris / Le Bourget

ULTIMO METAR :
  • 231100Z AUTO 22017G28KT 9999 OVC020 13/09 Q1023 TEMPO BKN008

METARs OBSOLETI :
  • 231030Z AUTO 23014KT 200V280 9999 OVC020 13/09 Q1024 TEMPO BKN008 BECMG 23015G25KT
  • 231000Z AUTO 22016KT 190V250 9999 OVC019 13/08 Q1023 TEMPO BKN008 BECMG 23015G25KT
  • 230930Z AUTO 20017KT 9999 BKN018 OVC023 12/08 Q1023 TEMPO BKN008 BECMG 23015G25KT
  • 230900Z AUTO 21016KT 9999 OVC016 12/08 Q1023 TEMPO BKN008 BECMG 23015G25KT
  • 230830Z AUTO 21015KT 180V240 9999 OVC015 11/08 Q1023 TEMPO BKN008 BECMG 23015G25KT
  • 230800Z AUTO 21013KT 190V250 9999 BKN013 OVC018 11/08 Q1024 TEMPO BKN008 BECMG 23015G25KT

TAF TAF LFPB
Valido dal 23 a 06 ore il 24 a 06 ore UTC


230500Z 2306/2406 23015G25KT 9999 BKN012
TEMPO 2306/2315 BKN008
TEMPO 2316/2406 BKN006
PROB40
TEMPO 2317/2406 3000 RADZ BKN003
BECMG 2318/2320 28010KT
BECMG 2403/2405 22010KT
ATIS : +33 1 48 62 43 92



MetMap, La meteo Aeronautica in un colpo d'occhio ! - Copyright ORBIFLY Dicembre 2007 - Disclaimer

ORBIFLY MET'MAP TEAM :

Programmazione e sviluppo : Alexandra Zaïnal
Concezione : Baudouin d'Aumeries
Aiuto per la programmazione : Marc-Olivier Méhu
Supporto tecnico e logistico : Manuel Goepfert
Aiuto per la traduzione : Arnaldo La Scala

Contatto : metmap@orbifly.com




FONTI E CREDITI :

   NOAA